Observation data for Saint Lawrence on 04/26/2019      Previous  Date       Current Mesonet Observations  Soil Data  Daily Summary Page  Observations in Plain Language
KST1 260500Z 07007KT 18/14 A3012 RMK A01 T01770140  RH  081%=      5-min Rain = 0
KST1 260505Z 08008KT 18/14 A3012 RMK A01 T01790138  RH  079%=      5-min Rain = 0
KST1 260510Z 08007KT 18/14 A3012 RMK A01 T01790138  RH  079%=      5-min Rain = 0
KST1 260515Z 08007KT 18/14 A3012 RMK A01 T01770139  RH  080%=      5-min Rain = 0
KST1 260520Z 08006KT 17/14 A3012 RMK A01 T01740140  RH  082%=      5-min Rain = 0
KST1 260525Z 09006KT 17/14 A3012 RMK A01 T01720141  RH  084%=      5-min Rain = 0
KST1 260530Z 08007KT 17/14 A3012 RMK A01 T01710141  RH  084%=      5-min Rain = 0
KST1 260535Z 09007KT 17/14 A3012 RMK A01 T01710141  RH  084%=      5-min Rain = 0
KST1 260540Z 08007KT 17/14 A3012 RMK A01 T01690141  RH  085%=      5-min Rain = 0
KST1 260545Z 04007KT 17/14 A3013 RMK A01 T01670140  RH  086%=      5-min Rain = 0
KST1 260550Z 06008KT 16/14 A3013 RMK A01 T01640141  RH  088%=      5-min Rain = 0
KST1 260555Z 06008KT 17/14 A3013 RMK A01 T01690138  RH  084%=      5-min Rain = 0
KST1 260600Z 06007KT 17/14 A3013 RMK A01 T01680137  RH  084%=      5-min Rain = 0
KST1 260605Z 06007KT 17/14 A3013 RMK A01 T01660138  RH  086%=      5-min Rain = 0
KST1 260610Z 06007KT 17/14 A3014 RMK A01 T01650138  RH  086%=      5-min Rain = 0
KST1 260615Z 06007KT 16/14 A3014 RMK A01 T01620139  RH  088%=      5-min Rain = 0
KST1 260620Z 06007KT 16/14 A3014 RMK A01 T01590140  RH  090%=      5-min Rain = 0
KST1 260625Z 06007KT 16/14 A3014 RMK A01 T01580140  RH  091%=      5-min Rain = 0
KST1 260630Z 06007KT 16/14 A3014 RMK A01 T01570141  RH  092%=      5-min Rain = 0
KST1 260635Z 06008KT 16/14 A3014 RMK A01 T01560141  RH  093%=      5-min Rain = 0
KST1 260640Z 05007KT 16/14 A3014 RMK A01 T01550141  RH  093%=      5-min Rain = 0
KST1 260645Z 05007KT 15/14 A3014 RMK A01 T01540141  RH  094%=      5-min Rain = 0
KST1 260650Z 05008KT 15/14 A3014 RMK A01 T01530142  RH  095%=      5-min Rain = 0
KST1 260655Z 05007KT 15/14 A3014 RMK A01 T01520141  RH  095%=      5-min Rain = 0
KST1 260700Z 05007KT 15/14 A3014 RMK A01 T01510141  RH  096%=      5-min Rain = 0
KST1 260705Z 05007KT 15/14 A3014 RMK A01 T01510141  RH  096%=      5-min Rain = 0
KST1 260710Z 05008KT 15/14 A3014 RMK A01 T01500142  RH  096%=      5-min Rain = 0
KST1 260715Z 06008KT 15/14 A3014 RMK A01 T01510140  RH  095%=      5-min Rain = 0
KST1 260720Z 06008KT 15/14 A3014 RMK A01 T01520139  RH  094%=      5-min Rain = 0
KST1 260725Z 06008KT 15/14 A3014 RMK A01 T01500138  RH  094%=      5-min Rain = 0
KST1 260730Z 06008KT 15/14 A3014 RMK A01 T01490138  RH  095%=      5-min Rain = 0
KST1 260735Z 06008KT 15/14 A3014 RMK A01 T01470138  RH  096%=      5-min Rain = 0
KST1 260740Z 06008KT 15/14 A3014 RMK A01 T01470138  RH  096%=      5-min Rain = 0
KST1 260745Z 07009KT 15/14 A3014 RMK A01 T01500137  RH  094%=      5-min Rain = 0
KST1 260750Z 07009KT 16/13 A3014 RMK A01 T01550134  RH  089%=      5-min Rain = 0
KST1 260755Z 07008KT 16/13 A3014 RMK A01 T01550132  RH  087%=      5-min Rain = 0
KST1 260800Z 07008KT 16/13 A3014 RMK A01 T01550131  RH  087%=      5-min Rain = 0
KST1 260805Z 08007KT 16/13 A3014 RMK A01 T01550130  RH  087%=      5-min Rain = 0
KST1 260810Z 08007KT 15/13 A3014 RMK A01 T01540130  RH  087%=      5-min Rain = 0
KST1 260815Z 07007KT 15/13 A3015 RMK A01 T01510130  RH  089%=      5-min Rain = 0
KST1 260820Z 07007KT 15/13 A3015 RMK A01 T01490130  RH  090%=      5-min Rain = 0
KST1 260825Z 08007KT 15/13 A3015 RMK A01 T01490130  RH  090%=      5-min Rain = 0
KST1 260830Z 08008KT 15/13 A3015 RMK A01 T01510130  RH  089%=      5-min Rain = 0
KST1 260835Z 08009KT 15/13 A3015 RMK A01 T01520129  RH  088%=      5-min Rain = 0
KST1 260840Z 08009KT 15/13 A3015 RMK A01 T01520128  RH  087%=      5-min Rain = 0
KST1 260845Z 08009KT 15/13 A3015 RMK A01 T01510127  RH  087%=      5-min Rain = 0
KST1 260850Z 08009KT 15/13 A3015 RMK A01 T01500127  RH  088%=      5-min Rain = 0
KST1 260855Z 08009KT 15/13 A3015 RMK A01 T01510127  RH  087%=      5-min Rain = 0
KST1 260900Z 08010KT 15/13 A3015 RMK A01 T01510127  RH  087%=      5-min Rain = 0
KST1 260905Z 08009KT 15/13 A3015 RMK A01 T01500126  RH  087%=      5-min Rain = 0
KST1 260910Z 08009KT 15/13 A3015 RMK A01 T01500126  RH  087%=      5-min Rain = 0
KST1 260915Z 08009KT 15/13 A3015 RMK A01 T01490126  RH  088%=      5-min Rain = 0
KST1 260920Z 09009KT 15/13 A3016 RMK A01 T01470126  RH  089%=      5-min Rain = 0
KST1 260925Z 10007KT 14/13 A3016 RMK A01 T01440127  RH  092%=      5-min Rain = 0
KST1 260930Z 09007KT 14/13 A3016 RMK A01 T01410128  RH  094%=      5-min Rain = 0
KST1 260935Z 09008KT 14/13 A3016 RMK A01 T01420129  RH  094%=      5-min Rain = 0
KST1 260940Z 10007KT 14/13 A3017 RMK A01 T01410128  RH  094%=      5-min Rain = 0
KST1 260945Z 10008KT 14/13 A3017 RMK A01 T01390129  RH  095%=      5-min Rain = 0
KST1 260950Z 10009KT 14/13 A3017 RMK A01 T01400129  RH  095%=      5-min Rain = 0
KST1 260955Z 09012KT 14/13 A3017 RMK A01 T01430127  RH  092%=      5-min Rain = 0
KST1 261000Z 09011KT 14/13 A3018 RMK A01 T01440125  RH  090%=      5-min Rain = 0
KST1 261005Z 08010KT 14/13 A3018 RMK A01 T01430125  RH  090%=      5-min Rain = 0
KST1 261010Z 09009KT 14/13 A3018 RMK A01 T01420125  RH  091%=      5-min Rain = 0
KST1 261015Z 09009KT 14/13 A3018 RMK A01 T01410125  RH  092%=      5-min Rain = 0
KST1 261020Z 08009KT 14/13 A3018 RMK A01 T01400125  RH  093%=      5-min Rain = 0
KST1 261025Z 08009KT 14/13 A3018 RMK A01 T01390125  RH  093%=      5-min Rain = 0
KST1 261030Z 07008KT 14/13 A3018 RMK A01 T01380125  RH  093%=      5-min Rain = 0
KST1 261035Z 07008KT 14/13 A3018 RMK A01 T01360125  RH  095%=      5-min Rain = 0
KST1 261040Z 07009KT 14/13 A3019 RMK A01 T01370126  RH  095%=      5-min Rain = 0
KST1 261045Z 08009KT 14/13 A3019 RMK A01 T01380125  RH  094%=      5-min Rain = 0
KST1 261050Z 08009KT 14/12 A3019 RMK A01 T01390124  RH  092%=      5-min Rain = 0
KST1 261055Z 09008KT 14/12 A3019 RMK A01 T01370123  RH  093%=      5-min Rain = 0
KST1 261100Z 09008KT 14/12 A3019 RMK A01 T01360123  RH  094%=      5-min Rain = 0
KST1 261105Z 08007KT 14/12 A3019 RMK A01 T01350123  RH  095%=      5-min Rain = 0
KST1 261110Z 08007KT 13/12 A3019 RMK A01 T01340124  RH  095%=      5-min Rain = 0
KST1 261115Z 08007KT 13/12 A302 RMK A01 T01340124  RH  095%=      5-min Rain = 0
KST1 261120Z 08006KT 13/12 A302 RMK A01 T01330123  RH  096%=      5-min Rain = 0
KST1 261125Z 08006KT 13/12 A302 RMK A01 T01310123  RH  096%=      5-min Rain = 0
KST1 261130Z 08006KT 13/12 A302 RMK A01 T01310122  RH  096%=      5-min Rain = 0
KST1 261135Z 08008KT 13/12 A302 RMK A01 T01310121  RH  095%=      5-min Rain = 0
KST1 261140Z 08008KT 13/12 A302 RMK A01 T01320119  RH  094%=      5-min Rain = 0
KST1 261145Z 09008KT 13/12 A302 RMK A01 T01310118  RH  093%=      5-min Rain = 0
KST1 261150Z 09008KT 13/12 A302 RMK A01 T01290118  RH  094%=      5-min Rain = 0
KST1 261155Z 09008KT 13/12 A302 RMK A01 T01280119  RH  096%=      5-min Rain = 0
KST1 261200Z 09008KT 13/12 A302 RMK A01 T01280119  RH  096%=      5-min Rain = 0
KST1 261205Z 08008KT 13/12 A3021 RMK A01 T01290119  RH  096%=      5-min Rain = 0
KST1 261210Z 09008KT 13/12 A3021 RMK A01 T01280118  RH  095%=      5-min Rain = 0
KST1 261215Z 09008KT 13/12 A3021 RMK A01 T01280118  RH  095%=      5-min Rain = 0
KST1 261220Z 09008KT 13/12 A3022 RMK A01 T01280117  RH  095%=      5-min Rain = 0
KST1 261225Z 09008KT 13/12 A3022 RMK A01 T01270118  RH  096%=      5-min Rain = 0
KST1 261230Z 09008KT 13/12 A3022 RMK A01 T01280119  RH  096%=      5-min Rain = 0
KST1 261235Z 10009KT 13/12 A3022 RMK A01 T01290119  RH  095%=      5-min Rain = 0
KST1 261240Z 10010KT 13/12 A3023 RMK A01 T01310118  RH  094%=      5-min Rain = 0
KST1 261245Z 10010KT 13/12 A3023 RMK A01 T01320118  RH  093%=      5-min Rain = 0
KST1 261250Z 10009KT 13/12 A3023 RMK A01 T01330117  RH  092%=      5-min Rain = 0
KST1 261255Z 09009KT 14/12 A3023 RMK A01 T01350117  RH  091%=      5-min Rain = 0
KST1 261300Z 09011KT 14/11 A3023 RMK A01 T01370114  RH  087%=      5-min Rain = 0
KST1 261305Z 09012KT 14/11 A3023 RMK A01 T01390110  RH  084%=      5-min Rain = 0
KST1 261310Z 09011KT 14/11 A3024 RMK A01 T01410109  RH  082%=      5-min Rain = 0
KST1 261315Z 09011KT 14/11 A3024 RMK A01 T01420110  RH  082%=      5-min Rain = 0
KST1 261320Z 09012KT 14/11 A3024 RMK A01 T01430109  RH  081%=      5-min Rain = 0
KST1 261325Z 09012KT 14/11 A3024 RMK A01 T01440108  RH  080%=      5-min Rain = 0
KST1 261330Z 09013KT 15/11 A3024 RMK A01 T01460109  RH  080%=      5-min Rain = 0
KST1 261335Z 09014KT 15/11 A3024 RMK A01 T01470109  RH  080%=      5-min Rain = 0
KST1 261340Z 08013G19KT 15/11 A3024 RMK A01 T01490109  RH  078%=      5-min Rain = 0
KST1 261345Z 09014KT 15/11 A3024 RMK A01 T01500108  RH  077%=      5-min Rain = 0
KST1 261350Z 09015G20KT 15/11 A3024 RMK A01 T01510107  RH  076%=      5-min Rain = 0
KST1 261355Z 09017KT 15/10 A3025 RMK A01 T01520104  RH  074%=      5-min Rain = 0
KST1 261400Z 09015KT 15/11 A3025 RMK A01 T01530105  RH  074%=      5-min Rain = 0
KST1 261405Z 09015G20KT 15/10 A3025 RMK A01 T01540103  RH  073%=      5-min Rain = 0
KST1 261410Z 09017KT 16/10 A3025 RMK A01 T01550097  RH  070%=      5-min Rain = 0
KST1 261415Z 09018KT 16/09 A3025 RMK A01 T01570094  RH  067%=      5-min Rain = 0
KST1 261420Z 09017KT 16/10 A3025 RMK A01 T01590096  RH  067%=      5-min Rain = 0
KST1 261425Z 09016G21KT 16/10 A3025 RMK A01 T01610095  RH  066%=      5-min Rain = 0
KST1 261430Z 09016KT 16/10 A3024 RMK A01 T01620098  RH  067%=      5-min Rain = 0
KST1 261435Z 09017KT 16/10 A3024 RMK A01 T01640097  RH  066%=      5-min Rain = 0
KST1 261440Z 09018KT 16/09 A3025 RMK A01 T01640091  RH  063%=      5-min Rain = 0
KST1 261445Z 09018G23KT 17/09 A3025 RMK A01 T01650089  RH  062%=      5-min Rain = 0
KST1 261450Z 09017KT 17/09 A3025 RMK A01 T01680092  RH  062%=      5-min Rain = 0
KST1 261455Z 09019G24KT 17/09 A3025 RMK A01 T01680087  RH  060%=      5-min Rain = 0
KST1 261500Z 08018KT 17/09 A3025 RMK A01 T01690087  RH  059%=      5-min Rain = 0
KST1 261505Z 09017KT 17/09 A3025 RMK A01 T01700091  RH  061%=      5-min Rain = 0
KST1 261510Z 09016KT 17/09 A3025 RMK A01 T01720094  RH  061%=      5-min Rain = 0
KST1 261515Z 09018G23KT 17/09 A3026 RMK A01 T01730090  RH  059%=      5-min Rain = 0
KST1 261520Z 09018KT 17/09 A3026 RMK A01 T01740087  RH  058%=      5-min Rain = 0
KST1 261525Z 08016G21KT 18/09 A3026 RMK A01 T01750087  RH  057%=      5-min Rain = 0
KST1 261530Z 08017KT 18/09 A3026 RMK A01 T01760087  RH  057%=      5-min Rain = 0
KST1 261535Z 09016KT 18/09 A3026 RMK A01 T01780090  RH  057%=      5-min Rain = 0
KST1 261540Z 09017KT 18/09 A3026 RMK A01 T01780090  RH  057%=      5-min Rain = 0
KST1 261545Z 09017KT 18/09 A3026 RMK A01 T01800090  RH  056%=      5-min Rain = 0
KST1 261550Z 09016KT 18/09 A3026 RMK A01 T01800090  RH  056%=      5-min Rain = 0
KST1 261555Z 08017KT 18/09 A3026 RMK A01 T01810087  RH  055%=      5-min Rain = 0
KST1 261600Z 09016KT 18/09 A3026 RMK A01 T01830090  RH  056%=      5-min Rain = 0
KST1 261605Z 09016KT 18/09 A3026 RMK A01 T01840089  RH  055%=      5-min Rain = 0
KST1 261610Z 08016KT 18/09 A3026 RMK A01 T01840087  RH  054%=      5-min Rain = 0
KST1 261615Z 08016KT 19/09 A3026 RMK A01 T01870088  RH  054%=      5-min Rain = 0
KST1 261620Z 08016G21KT 19/09 A3026 RMK A01 T01870089  RH  054%=      5-min Rain = 0
KST1 261625Z 09017KT 19/09 A3026 RMK A01 T01890088  RH  053%=      5-min Rain = 0
KST1 261630Z 08016KT 19/09 A3026 RMK A01 T01900087  RH  052%=      5-min Rain = 0
KST1 261635Z 08016G21KT 19/08 A3026 RMK A01 T01900081  RH  050%=      5-min Rain = 0
KST1 261640Z 08014G19KT 19/09 A3026 RMK A01 T01910087  RH  052%=      5-min Rain = 0
KST1 261645Z 09015KT 19/10 A3026 RMK A01 T01940098  RH  055%=      5-min Rain = 0
KST1 261650Z 09016G21KT 19/10 A3026 RMK A01 T01940098  RH  055%=      5-min Rain = 0
KST1 261655Z 09015KT 19/10 A3026 RMK A01 T01940100  RH  056%=      5-min Rain = 0
KST1 261700Z 09016KT 19/10 A3025 RMK A01 T01940099  RH  055%=      5-min Rain = 0
KST1 261705Z 09014KT 20/10 A3025 RMK A01 T01960104  RH  056%=      5-min Rain = 0
KST1 261710Z 09016KT 20/10 A3025 RMK A01 T01960099  RH  054%=      5-min Rain = 0
KST1 261715Z 10017KT 20/10 A3024 RMK A01 T01970098  RH  054%=      5-min Rain = 0
KST1 261720Z 09016KT 20/09 A3024 RMK A01 T01960093  RH  052%=      5-min Rain = 0
KST1 261725Z 09017KT 20/09 A3023 RMK A01 T01970091  RH  051%=      5-min Rain = 0
KST1 261730Z 10016KT 20/10 A3023 RMK A01 T02000102  RH  054%=      5-min Rain = 0
KST1 261735Z 09015KT 20/10 A3023 RMK A01 T02010098  RH  052%=      5-min Rain = 0
KST1 261740Z 10015KT 20/10 A3023 RMK A01 T02020101  RH  053%=      5-min Rain = 0
KST1 261745Z 10015G21KT 20/10 A3023 RMK A01 T02020098  RH  052%=      5-min Rain = 0
KST1 261750Z 10014KT 21/10 A3022 RMK A01 T02050099  RH  052%=      5-min Rain = 0
KST1 261755Z 10015KT 21/10 A3022 RMK A01 T02060098  RH  051%=      5-min Rain = 0
KST1 261800Z 10015KT 20/10 A3021 RMK A01 T02040096  RH  051%=      5-min Rain = 0
KST1 261805Z 10015KT 21/10 A3021 RMK A01 T02050098  RH  051%=      5-min Rain = 0
KST1 261810Z 10014G19KT 21/10 A3021 RMK A01 T02060099  RH  051%=      5-min Rain = 0
KST1 261815Z 10015KT 21/10 A3021 RMK A01 T02090098  RH  050%=      5-min Rain = 0
KST1 261820Z 10014KT 21/10 A302 RMK A01 T02090100  RH  051%=      5-min Rain = 0
KST1 261825Z 10014G19KT 21/10 A302 RMK A01 T02100099  RH  050%=      5-min Rain = 0
KST1 261830Z 11015KT 21/10 A302 RMK A01 T02110098  RH  049%=      5-min Rain = 0
KST1 261835Z 10014KT 21/10 A3019 RMK A01 T02130104  RH  051%=      5-min Rain = 0
KST1 261840Z 11016KT 22/10 A3019 RMK A01 T02150101  RH  049%=      5-min Rain = 0
KST1 261845Z 11014KT 21/10 A3019 RMK A01 T02130099  RH  049%=      5-min Rain = 0
KST1 261850Z 11014KT 22/10 A3019 RMK A01 T02150103  RH  050%=      5-min Rain = 0
KST1 261855Z 11016KT 22/10 A3019 RMK A01 T02160098  RH  048%=      5-min Rain = 0
KST1 261900Z 11015KT 22/10 A3019 RMK A01 T02150098  RH  048%=      5-min Rain = 0
KST1 261905Z 11014KT 22/10 A3018 RMK A01 T02180103  RH  049%=      5-min Rain = 0
KST1 261910Z 11015G21KT 22/10 A3018 RMK A01 T02180096  RH  046%=      5-min Rain = 0
KST1 261915Z 12014KT 22/10 A3018 RMK A01 T02190096  RH  046%=      5-min Rain = 0
KST1 261920Z 12013G18KT 22/10 A3017 RMK A01 T02220101  RH  047%=      5-min Rain = 0
KST1 261925Z 12014KT 22/10 A3017 RMK A01 T02210097  RH  046%=      5-min Rain = 0
KST1 261930Z 12013KT 22/10 A3017 RMK A01 T02220099  RH  046%=      5-min Rain = 0
KST1 261935Z 12013KT 22/10 A3017 RMK A01 T02230099  RH  046%=      5-min Rain = 0
KST1 261940Z 12013KT 23/10 A3016 RMK A01 T02250102  RH  047%=      5-min Rain = 0
KST1 261945Z 13015G25KT 22/10 A3016 RMK A01 T02240100  RH  046%=      5-min Rain = 0
KST1 261950Z 13014G19KT 23/10 A3016 RMK A01 T02260100  RH  046%=      5-min Rain = 0
KST1 261955Z 14014G19KT 23/10 A3015 RMK A01 T02260097  RH  045%=      5-min Rain = 0
KST1 262000Z 13015G20KT 23/10 A3015 RMK A01 T02280100  RH  045%=      5-min Rain = 0
KST1 262005Z 14014G19KT 23/10 A3015 RMK A01 T02290100  RH  045%=      5-min Rain = 0
KST1 262010Z 14014G20KT 23/10 A3015 RMK A01 T02290097  RH  044%=      5-min Rain = 0
KST1 262015Z 14013KT 23/10 A3015 RMK A01 T02290099  RH  044%=      5-min Rain = 0
KST1 262020Z 14016KT 23/10 A3014 RMK A01 T02280097  RH  044%=      5-min Rain = 0
KST1 262025Z 15016KT 23/10 A3014 RMK A01 T02310100  RH  044%=      5-min Rain = 0
KST1 262030Z 13015G20KT 23/10 A3014 RMK A01 T02300099  RH  044%=      5-min Rain = 0
KST1 262035Z 13016KT 23/10 A3014 RMK A01 T02290100  RH  045%=      5-min Rain = 0
KST1 262040Z 13015G21KT 23/10 A3013 RMK A01 T02320101  RH  044%=      5-min Rain = 0
KST1 262045Z 14015G21KT 23/10 A3013 RMK A01 T02320098  RH  043%=      5-min Rain = 0
KST1 262050Z 14016G22KT 23/10 A3013 RMK A01 T02320097  RH  043%=      5-min Rain = 0
KST1 262055Z 13015G21KT 24/10 A3012 RMK A01 T02360100  RH  043%=      5-min Rain = 0
KST1 262100Z 14014KT 24/10 A3012 RMK A01 T02350095  RH  042%=      5-min Rain = 0
KST1 262105Z 15016KT 24/10 A3011 RMK A01 T02350096  RH  042%=      5-min Rain = 0
KST1 262110Z 15016G21KT 24/10 A3011 RMK A01 T02360096  RH  041%=      5-min Rain = 0
KST1 262115Z 14014G19KT 24/10 A3011 RMK A01 T02360098  RH  042%=      5-min Rain = 0
KST1 262120Z 14014G20KT 24/10 A3011 RMK A01 T02370099  RH  042%=      5-min Rain = 0
KST1 262125Z 13014G19KT 24/10 A3011 RMK A01 T02380102  RH  043%=      5-min Rain = 0
KST1 262130Z 13016KT 24/10 A301 RMK A01 T02390103  RH  043%=      5-min Rain = 0
KST1 262135Z 14016KT 24/10 A301 RMK A01 T02410104  RH  043%=      5-min Rain = 0
KST1 262140Z 14015KT 24/11 A3009 RMK A01 T02440105  RH  042%=      5-min Rain = 0
KST1 262145Z 14017G22KT 24/10 A3009 RMK A01 T02440103  RH  042%=      5-min Rain = 0
KST1 262150Z 15018KT 24/10 A3009 RMK A01 T02440104  RH  042%=      5-min Rain = 0
KST1 262155Z 15016G21KT 25/10 A3008 RMK A01 T02450103  RH  042%=      5-min Rain = 0
KST1 262200Z 15016G21KT 25/11 A3008 RMK A01 T02470105  RH  042%=      5-min Rain = 0
KST1 262205Z 14016KT 25/11 A3008 RMK A01 T02470107  RH  042%=      5-min Rain = 0
KST1 262210Z 15015G20KT 25/11 A3008 RMK A01 T02480109  RH  042%=      5-min Rain = 0
KST1 262215Z 15015G20KT 25/11 A3007 RMK A01 T02490107  RH  042%=      5-min Rain = 0
KST1 262220Z 15016G21KT 25/11 A3007 RMK A01 T02480107  RH  042%=      5-min Rain = 0
KST1 262225Z 14016G22KT 25/11 A3007 RMK A01 T02490110  RH  042%=      5-min Rain = 0
KST1 262230Z 14015G20KT 25/11 A3007 RMK A01 T02490107  RH  042%=      5-min Rain = 0
KST1 262235Z 15015G21KT 25/11 A3006 RMK A01 T02500108  RH  042%=      5-min Rain = 0
KST1 262240Z 15017G22KT 25/11 A3006 RMK A01 T02480109  RH  042%=      5-min Rain = 0
KST1 262245Z 15016KT 25/11 A3006 RMK A01 T02500110  RH  042%=      5-min Rain = 0
KST1 262250Z 14017KT 25/11 A3006 RMK A01 T02480110  RH  042%=      5-min Rain = 0
KST1 262255Z 15016G21KT 25/11 A3005 RMK A01 T02510107  RH  041%=      5-min Rain = 0
KST1 262300Z 16014KT 25/11 A3005 RMK A01 T02510108  RH  041%=      5-min Rain = 0
KST1 262305Z 15017G22KT 25/11 A3005 RMK A01 T02520107  RH  041%=      5-min Rain = 0
KST1 262310Z 16014KT 25/11 A3005 RMK A01 T02510105  RH  041%=      5-min Rain = 0
KST1 262315Z 15018KT 25/11 A3005 RMK A01 T02500106  RH  041%=      5-min Rain = 0
KST1 262320Z 16016KT 25/10 A3004 RMK A01 T02470103  RH  041%=      5-min Rain = 0
KST1 262325Z 15016KT 25/11 A3004 RMK A01 T02480107  RH  042%=      5-min Rain = 0
KST1 262330Z 15017KT 25/11 A3004 RMK A01 T02480107  RH  042%=      5-min Rain = 0
KST1 262335Z 15015KT 25/11 A3004 RMK A01 T02450107  RH  042%=      5-min Rain = 0
KST1 262340Z 16018KT 25/10 A3004 RMK A01 T02460103  RH  041%=      5-min Rain = 0
KST1 262345Z 15014KT 25/11 A3003 RMK A01 T02470106  RH  042%=      5-min Rain = 0
KST1 262350Z 14016KT 25/11 A3003 RMK A01 T02450108  RH  043%=      5-min Rain = 0
KST1 262355Z 15016KT 25/11 A3003 RMK A01 T02460109  RH  043%=      5-min Rain = 0
KST1 270000Z 15016KT 25/11 A3003 RMK A01 T02450109  RH  043%=      5-min Rain = 0
KST1 270005Z 15016KT 25/11 A3003 RMK A01 T02450108  RH  043%=      5-min Rain = 0
KST1 270010Z 15014KT 24/11 A3003 RMK A01 T02440111  RH  044%=      5-min Rain = 0
KST1 270015Z 14014G19KT 24/11 A3003 RMK A01 T02430112  RH  044%=      5-min Rain = 0
KST1 270020Z 15014KT 24/11 A3003 RMK A01 T02430112  RH  045%=      5-min Rain = 0
KST1 270025Z 14013KT 24/11 A3002 RMK A01 T02410113  RH  045%=      5-min Rain = 0
KST1 270030Z 14013KT 24/12 A3002 RMK A01 T02400115  RH  046%=      5-min Rain = 0
KST1 270035Z 14013G18KT 24/12 A3002 RMK A01 T02390116  RH  047%=      5-min Rain = 0
KST1 270040Z 14013KT 24/11 A3002 RMK A01 T02370113  RH  046%=      5-min Rain = 0
KST1 270045Z 14013KT 24/11 A3001 RMK A01 T02350113  RH  047%=      5-min Rain = 0
KST1 270050Z 14013KT 23/11 A3001 RMK A01 T02330114  RH  048%=      5-min Rain = 0
KST1 270055Z 14014KT 23/11 A3001 RMK A01 T02310114  RH  048%=      5-min Rain = 0
KST1 270100Z 14012KT 23/12 A3001 RMK A01 T02290116  RH  050%=      5-min Rain = 0
KST1 270105Z 14012KT 23/12 A30 RMK A01 T02270117  RH  051%=      5-min Rain = 0
KST1 270110Z 15011KT 22/12 A30 RMK A01 T02230118  RH  052%=      5-min Rain = 0
KST1 270115Z 15011KT 22/12 A30 RMK A01 T02200119  RH  054%=      5-min Rain = 0
KST1 270120Z 15010KT 22/12 A30 RMK A01 T02180120  RH  055%=      5-min Rain = 0
KST1 270125Z 15010KT 22/12 A30 RMK A01 T02150122  RH  056%=      5-min Rain = 0
KST1 270130Z 15009KT 21/12 A30 RMK A01 T02120122  RH  058%=      5-min Rain = 0
KST1 270135Z 15010KT 21/12 A30 RMK A01 T02100122  RH  058%=      5-min Rain = 0
KST1 270140Z 15009KT 21/12 A30 RMK A01 T02080123  RH  059%=      5-min Rain = 0
KST1 270145Z 14009KT 21/12 A30 RMK A01 T02060123  RH  060%=      5-min Rain = 0
KST1 270150Z 14009KT 20/13 A30 RMK A01 T02030125  RH  062%=      5-min Rain = 0
KST1 270155Z 14008KT 20/13 A30 RMK A01 T02000127  RH  064%=      5-min Rain = 0
KST1 270200Z 14008KT 20/13 A30 RMK A01 T01980128  RH  065%=      5-min Rain = 0
KST1 270205Z 14008KT 20/13 A30 RMK A01 T01970129  RH  066%=      5-min Rain = 0
KST1 270210Z 14008KT 19/13 A30 RMK A01 T01940130  RH  068%=      5-min Rain = 0
KST1 270215Z 14008KT 19/13 A3001 RMK A01 T01930131  RH  069%=      5-min Rain = 0
KST1 270220Z 13008KT 19/13 A3001 RMK A01 T01910132  RH  070%=      5-min Rain = 0
KST1 270225Z 13008KT 19/13 A3001 RMK A01 T01890133  RH  071%=      5-min Rain = 0
KST1 270230Z 13008KT 19/13 A3001 RMK A01 T01870133  RH  073%=      5-min Rain = 0
KST1 270235Z 13008KT 19/13 A3001 RMK A01 T01850134  RH  074%=      5-min Rain = 0
KST1 270240Z 13008KT 18/13 A3001 RMK A01 T01830134  RH  074%=      5-min Rain = 0
KST1 270245Z 13008KT 18/13 A3001 RMK A01 T01820134  RH  075%=      5-min Rain = 0
KST1 270250Z 13008KT 18/13 A3002 RMK A01 T01800134  RH  076%=      5-min Rain = 0
KST1 270255Z 12008KT 18/13 A3002 RMK A01 T01800134  RH  076%=      5-min Rain = 0
KST1 270300Z 13008KT 18/13 A3002 RMK A01 T01800133  RH  075%=      5-min Rain = 0
KST1 270305Z 13008KT 18/13 A3002 RMK A01 T01780133  RH  076%=      5-min Rain = 0
KST1 270310Z 13008KT 18/13 A3002 RMK A01 T01770133  RH  077%=      5-min Rain = 0
KST1 270315Z 12008KT 18/13 A3002 RMK A01 T01760133  RH  077%=      5-min Rain = 0
KST1 270320Z 12008KT 18/13 A3003 RMK A01 T01760132  RH  077%=      5-min Rain = 0
KST1 270325Z 12008KT 17/13 A3003 RMK A01 T01740131  RH  077%=      5-min Rain = 0
KST1 270330Z 12008KT 17/13 A3002 RMK A01 T01720132  RH  079%=      5-min Rain = 0
KST1 270335Z 12008KT 17/13 A3002 RMK A01 T01700132  RH  080%=      5-min Rain = 0
KST1 270340Z 12008KT 17/13 A3002 RMK A01 T01720132  RH  079%=      5-min Rain = 0
KST1 270345Z 13007KT 17/13 A3002 RMK A01 T01680133  RH  081%=      5-min Rain = 0
KST1 270350Z 13008KT 17/13 A3002 RMK A01 T01670134  RH  082%=      5-min Rain = 0
KST1 270355Z 13009KT 17/13 A3002 RMK A01 T01670133  RH  082%=      5-min Rain = 0
KST1 270400Z 13008KT 17/13 A3002 RMK A01 T01670133  RH  082%=      5-min Rain = 0
KST1 270405Z 14008KT 17/13 A3002 RMK A01 T01660133  RH  082%=      5-min Rain = 0
KST1 270410Z 14008KT 17/13 A3002 RMK A01 T01660133  RH  082%=      5-min Rain = 0
KST1 270415Z 14009KT 17/13 A3001 RMK A01 T01650133  RH  083%=      5-min Rain = 0
KST1 270420Z 15008KT 17/13 A3001 RMK A01 T01650133  RH  083%=      5-min Rain = 0
KST1 270425Z 15007KT 17/13 A3002 RMK A01 T01650133  RH  083%=      5-min Rain = 0
KST1 270430Z 14008KT 16/13 A3001 RMK A01 T01640133  RH  083%=      5-min Rain = 0
KST1 270435Z 14009KT 16/13 A3001 RMK A01 T01630133  RH  084%=      5-min Rain = 0
KST1 270440Z 14009KT 16/13 A30 RMK A01 T01620133  RH  084%=      5-min Rain = 0
KST1 270445Z 15009KT 16/13 A30 RMK A01 T01620132  RH  084%=      5-min Rain = 0
KST1 270450Z 15009KT 16/13 A30 RMK A01 T01620131  RH  083%=      5-min Rain = 0
KST1 270455Z 15009KT 16/13 A2999 RMK A01 T01630131  RH  083%=      5-min Rain = 0

Page generated in 0.0141 seconds.